createdAt,value
2018-07-31T00:00:14.839Z,92.90
2018-07-31T00:02:44.115Z,92.90
2018-07-31T00:05:13.197Z,92.80
2018-07-31T00:07:42.228Z,92.80
2018-07-31T00:10:11.338Z,92.90
2018-07-31T00:12:40.362Z,93.00
2018-07-31T00:15:11.161Z,93.00
2018-07-31T00:17:40.282Z,93.50
2018-07-31T00:20:09.343Z,93.20
2018-07-31T00:22:38.442Z,93.00
2018-07-31T00:25:07.487Z,93.20
2018-07-31T00:27:37.467Z,93.30
2018-07-31T00:30:08.039Z,93.60
2018-07-31T00:32:37.123Z,93.60
2018-07-31T00:35:06.308Z,93.50
2018-07-31T00:37:35.321Z,93.30
2018-07-31T00:40:04.648Z,93.50
2018-07-31T00:42:33.712Z,93.50
2018-07-31T00:45:04.509Z,93.70
2018-07-31T00:47:33.806Z,93.70
2018-07-31T00:50:02.895Z,93.80
2018-07-31T00:52:32.638Z,94.20
2018-07-31T00:55:01.696Z,93.80
2018-07-31T00:57:30.720Z,94.10
2018-07-31T00:59:59.803Z,94.30
2018-07-31T01:02:30.163Z,94.30
2018-07-31T01:04:59.236Z,94.20
2018-07-31T01:07:28.281Z,94.30
2018-07-31T01:09:57.907Z,94.20
2018-07-31T01:12:27.030Z,94.20
2018-07-31T01:14:56.081Z,94.20
2018-07-31T01:17:25.124Z,94.30
2018-07-31T01:19:54.188Z,94.30
2018-07-31T01:22:23.379Z,94.40
2018-07-31T01:24:52.479Z,94.50
2018-07-31T01:27:21.929Z,94.60
2018-07-31T01:29:50.994Z,94.70
2018-07-31T01:32:20.382Z,94.90
2018-07-31T01:34:49.518Z,95.10
2018-07-31T01:37:18.540Z,95.10
2018-07-31T01:39:47.588Z,95.20
2018-07-31T01:42:16.587Z,95.20
2018-07-31T01:44:45.677Z,95.40
2018-07-31T01:47:14.729Z,95.50
2018-07-31T01:49:43.800Z,94.90
2018-07-31T01:52:12.929Z,94.90
2018-07-31T01:54:42.015Z,94.90
2018-07-31T01:57:11.075Z,95.10
2018-07-31T01:59:40.255Z,95.30
2018-07-31T02:02:09.210Z,95.30
2018-07-31T02:04:38.264Z,95.40
2018-07-31T02:07:07.294Z,95.40
2018-07-31T02:09:36.377Z,95.10
2018-07-31T02:12:05.393Z,95.30
2018-07-31T02:14:35.208Z,95.40
2018-07-31T02:17:04.305Z,95.30
2018-07-31T02:19:33.358Z,95.20
2018-07-31T02:22:02.396Z,95.30
2018-07-31T02:24:31.498Z,95.40
2018-07-31T02:27:00.574Z,95.40
2018-07-31T02:29:34.906Z,95.40
2018-07-31T02:32:03.941Z,95.60
2018-07-31T02:34:33.029Z,95.40
2018-07-31T02:37:02.204Z,95.50
2018-07-31T02:39:31.263Z,95.50
2018-07-31T02:42:00.362Z,95.50
2018-07-31T02:44:29.423Z,95.60
2018-07-31T02:46:58.574Z,95.70
2018-07-31T02:49:27.981Z,95.80
2018-07-31T02:51:57.023Z,95.70
2018-07-31T02:54:26.061Z,95.70
2018-07-31T02:56:55.137Z,95.70
2018-07-31T02:59:24.511Z,95.30
2018-07-31T03:01:53.528Z,95.30
2018-07-31T03:04:22.539Z,95.20
2018-07-31T03:06:51.596Z,95.20
2018-07-31T03:09:20.695Z,95.60
2018-07-31T03:11:49.774Z,95.90
2018-07-31T03:14:18.788Z,96.00
2018-07-31T03:16:47.901Z,96.10
2018-07-31T03:19:16.919Z,96.40
2018-07-31T03:21:46.007Z,96.50
2018-07-31T03:24:15.473Z,96.20
2018-07-31T03:26:44.523Z,96.20
2018-07-31T03:29:14.699Z,96.10
2018-07-31T03:31:43.736Z,96.00
2018-07-31T03:34:12.743Z,95.90
2018-07-31T03:36:42.471Z,95.90
2018-07-31T03:39:11.670Z,96.10
2018-07-31T03:41:40.757Z,96.00
2018-07-31T03:44:09.818Z,96.10
2018-07-31T03:46:38.846Z,96.40
2018-07-31T03:49:07.877Z,96.10
2018-07-31T03:51:36.894Z,96.10
2018-07-31T03:54:06.045Z,96.00
2018-07-31T03:56:35.134Z,96.40
2018-07-31T03:59:04.389Z,96.90
2018-07-31T04:01:33.431Z,97.30
2018-07-31T04:04:02.447Z,96.60
2018-07-31T04:06:31.484Z,96.40
2018-07-31T04:09:00.533Z,96.50
2018-07-31T04:11:30.025Z,96.60
2018-07-31T04:13:59.118Z,96.30
2018-07-31T04:16:28.961Z,96.30
2018-07-31T04:18:57.992Z,96.70
2018-07-31T04:21:27.223Z,96.50
2018-07-31T04:23:56.246Z,96.60
2018-07-31T04:26:25.293Z,96.80
2018-07-31T04:28:54.318Z,96.60
2018-07-31T04:31:25.611Z,96.60
2018-07-31T04:33:54.985Z,96.40
2018-07-31T04:36:24.035Z,96.10
2018-07-31T04:38:53.029Z,96.20
2018-07-31T04:41:22.130Z,96.20
2018-07-31T04:43:51.064Z,95.80
2018-07-31T04:46:20.088Z,95.70
2018-07-31T04:48:49.122Z,95.50
2018-07-31T04:51:18.141Z,95.60
2018-07-31T04:53:47.172Z,95.40
2018-07-31T04:56:16.212Z,95.30
2018-07-31T04:58:45.556Z,95.20
2018-07-31T05:01:14.606Z,95.30
2018-07-31T05:03:43.805Z,95.40
2018-07-31T05:06:12.883Z,95.60
2018-07-31T05:08:41.936Z,95.50
2018-07-31T05:11:11.013Z,95.10
2018-07-31T05:13:40.047Z,95.00
2018-07-31T05:16:09.077Z,94.80
2018-07-31T05:18:38.172Z,94.80
2018-07-31T05:21:07.456Z,94.50
2018-07-31T05:23:36.479Z,94.50
2018-07-31T05:26:05.534Z,94.50
2018-07-31T05:28:34.546Z,94.00
2018-07-31T05:31:03.646Z,93.80
2018-07-31T05:33:32.704Z,94.20
2018-07-31T05:36:01.701Z,93.70
2018-07-31T05:38:30.734Z,93.30
2018-07-31T05:40:59.723Z,92.80
2018-07-31T05:43:28.913Z,92.80
2018-07-31T05:45:58.375Z,92.60
2018-07-31T05:48:27.409Z,92.50
2018-07-31T05:50:56.583Z,92.60
2018-07-31T05:53:25.599Z,92.60
2018-07-31T05:55:54.600Z,92.40
2018-07-31T05:58:23.626Z,91.70
2018-07-31T06:00:52.667Z,91.00
2018-07-31T06:05:50.419Z,94.40
2018-07-31T06:08:19.440Z,88.00
2018-07-31T06:10:48.509Z,87.00
2018-07-31T06:13:17.556Z,86.60
2018-07-31T06:15:46.559Z,86.90
2018-07-31T06:18:15.620Z,86.00
2018-07-31T06:20:44.716Z,86.30
2018-07-31T06:23:14.671Z,86.80
2018-07-31T06:25:43.658Z,86.50
2018-07-31T06:28:12.689Z,85.50
2018-07-31T06:30:41.687Z,85.30
2018-07-31T06:33:10.734Z,84.90
2018-07-31T06:35:39.722Z,84.50
2018-07-31T06:38:08.735Z,83.80
2018-07-31T06:40:37.704Z,82.40
2018-07-31T06:43:06.987Z,82.90
2018-07-31T06:45:36.174Z,83.00
2018-07-31T06:48:05.713Z,82.30
2018-07-31T06:50:35.560Z,81.20
2018-07-31T06:53:04.800Z,80.50
2018-07-31T06:55:34.025Z,81.10
2018-07-31T06:58:03.251Z,80.20
2018-07-31T07:00:32.463Z,79.70
2018-07-31T07:03:01.732Z,79.30
2018-07-31T07:05:30.892Z,78.70
2018-07-31T07:08:00.132Z,78.60
2018-07-31T07:10:29.348Z,78.40
2018-07-31T07:12:58.532Z,78.40
2018-07-31T07:15:27.773Z,79.30
2018-07-31T07:17:56.950Z,76.30
2018-07-31T07:22:54.977Z,73.90
2018-07-31T07:25:24.172Z,73.20
2018-07-31T07:27:53.425Z,73.80
2018-07-31T07:30:22.560Z,74.00
2018-07-31T07:32:51.783Z,74.30
2018-07-31T07:35:20.773Z,72.80
2018-07-31T07:37:49.753Z,72.30
2018-07-31T07:40:18.768Z,72.70
2018-07-31T07:42:47.764Z,70.80
2018-07-31T07:45:16.762Z,70.40
2018-07-31T07:47:45.788Z,69.00
2018-07-31T07:50:14.776Z,68.40
2018-07-31T07:52:43.739Z,67.60
2018-07-31T07:55:12.757Z,64.30
2018-07-31T08:07:38.079Z,48.80
2018-07-31T08:10:07.358Z,47.70
2018-07-31T08:12:36.528Z,44.30
2018-07-31T08:15:05.934Z,42.60
2018-07-31T08:17:35.154Z,40.90
2018-07-31T08:20:04.920Z,41.50
2018-07-31T08:22:34.105Z,42.20
2018-07-31T08:25:03.374Z,43.10
2018-07-31T08:27:32.593Z,43.60
2018-07-31T08:30:01.801Z,43.40
2018-07-31T08:32:31.011Z,44.10
2018-07-31T08:35:00.235Z,44.60
2018-07-31T08:39:58.176Z,44.10
2018-07-31T08:42:27.349Z,45.20
2018-07-31T08:44:56.605Z,45.40
2018-07-31T08:47:25.850Z,45.40
2018-07-31T08:49:55.086Z,44.60
2018-07-31T08:52:24.277Z,43.60
2018-07-31T08:54:54.640Z,43.50
2018-07-31T08:57:23.904Z,43.50
2018-07-31T08:59:53.148Z,43.40
2018-07-31T09:04:52.508Z,42.10
2018-07-31T09:07:21.677Z,41.90
2018-07-31T09:12:19.756Z,40.20
2018-07-31T09:14:49.073Z,40.10
2018-07-31T09:19:47.080Z,38.10
2018-07-31T09:22:16.281Z,38.70
2018-07-31T09:24:45.508Z,37.10
2018-07-31T09:27:14.746Z,35.60
2018-07-31T09:29:43.985Z,36.70
2018-07-31T09:32:13.305Z,37.40
2018-07-31T09:34:46.494Z,37.80
2018-07-31T09:37:16.204Z,37.60
2018-07-31T09:39:45.468Z,36.60
2018-07-31T09:42:14.656Z,37.30
2018-07-31T09:44:43.856Z,35.40
2018-07-31T09:52:11.113Z,33.20
2018-07-31T09:54:40.352Z,34.30
2018-07-31T09:57:09.705Z,33.80
2018-07-31T09:59:38.752Z,32.90
2018-07-31T10:02:07.773Z,33.30
2018-07-31T10:04:36.839Z,33.80
2018-07-31T10:07:05.940Z,34.70
2018-07-31T10:09:34.979Z,34.40
2018-07-31T10:12:04.106Z,35.40
2018-07-31T10:14:33.175Z,36.50
2018-07-31T10:17:02.167Z,38.10
2018-07-31T10:19:31.176Z,39.80
2018-07-31T10:22:00.258Z,39.80
2018-07-31T10:24:29.362Z,40.00
2018-07-31T10:26:58.360Z,38.60
2018-07-31T10:29:27.359Z,38.00
2018-07-31T10:31:56.399Z,37.40
2018-07-31T10:34:25.405Z,37.50
2018-07-31T10:36:54.471Z,36.90
2018-07-31T10:39:23.466Z,35.00
2018-07-31T10:41:52.482Z,33.40
2018-07-31T10:44:21.495Z,33.30
2018-07-31T10:46:50.527Z,33.30
2018-07-31T10:49:19.554Z,35.20
2018-07-31T10:54:17.258Z,33.80
2018-07-31T10:56:46.271Z,35.40
2018-07-31T10:59:15.263Z,36.00
2018-07-31T11:01:44.302Z,37.30
2018-07-31T11:04:13.862Z,37.90
2018-07-31T11:06:42.980Z,37.40
2018-07-31T11:09:12.496Z,38.30
2018-07-31T11:11:42.127Z,38.70
2018-07-31T11:14:11.203Z,39.10
2018-07-31T11:16:41.011Z,39.30
2018-07-31T11:19:10.028Z,39.20
2018-07-31T11:21:39.096Z,39.30
2018-07-31T11:24:08.117Z,40.80
2018-07-31T11:26:37.211Z,39.20
2018-07-31T11:29:06.381Z,39.60
2018-07-31T11:31:35.422Z,38.80
2018-07-31T11:36:33.771Z,39.90
2018-07-31T11:39:02.801Z,41.00
2018-07-31T11:41:31.859Z,39.80
2018-07-31T11:44:00.933Z,39.50
2018-07-31T11:46:29.948Z,37.20
2018-07-31T11:48:58.945Z,39.50
2018-07-31T11:51:27.971Z,40.40
2018-07-31T11:53:57.016Z,41.00
2018-07-31T11:56:26.066Z,73.90
2018-07-31T12:01:23.763Z,35.50
2018-07-31T12:03:52.768Z,36.40
2018-07-31T12:06:21.801Z,35.80
2018-07-31T12:08:50.800Z,35.90
2018-07-31T12:11:19.825Z,36.60
2018-07-31T12:13:48.852Z,37.30
2018-07-31T12:16:17.933Z,35.50
2018-07-31T12:18:47.105Z,35.20
2018-07-31T12:21:16.509Z,36.90
2018-07-31T12:23:45.582Z,37.10
2018-07-31T12:26:14.623Z,37.50
2018-07-31T12:28:43.638Z,37.00
2018-07-31T12:31:12.673Z,36.70
2018-07-31T12:33:41.667Z,35.60
2018-07-31T12:36:10.725Z,35.80
2018-07-31T12:38:39.748Z,36.70
2018-07-31T12:41:08.857Z,36.20
2018-07-31T12:43:38.033Z,34.50
2018-07-31T12:46:07.089Z,35.80
2018-07-31T12:48:36.128Z,36.60
2018-07-31T12:51:05.193Z,37.90
2018-07-31T12:53:34.256Z,38.60
2018-07-31T12:56:03.416Z,39.30
2018-07-31T12:58:33.302Z,37.60
2018-07-31T13:01:02.325Z,37.60
2018-07-31T13:03:31.372Z,37.40
2018-07-31T13:06:00.446Z,40.10
2018-07-31T13:08:29.467Z,40.60
2018-07-31T13:10:58.492Z,40.40
2018-07-31T13:13:27.535Z,40.70
2018-07-31T13:15:56.683Z,41.80
2018-07-31T13:18:25.721Z,41.80
2018-07-31T13:20:54.782Z,40.70
2018-07-31T13:23:23.821Z,85.10
2018-07-31T13:25:52.828Z,41.00
2018-07-31T13:28:21.859Z,42.10
2018-07-31T13:30:50.978Z,40.50
2018-07-31T13:33:19.919Z,40.80
2018-07-31T13:35:48.927Z,40.90
2018-07-31T13:38:17.993Z,40.00
2018-07-31T13:40:47.160Z,40.60
2018-07-31T13:43:16.218Z,40.40
2018-07-31T13:45:45.414Z,39.90
2018-07-31T13:48:15.117Z,39.20
2018-07-31T13:50:44.134Z,39.70
2018-07-31T13:53:13.202Z,40.00
2018-07-31T13:55:42.319Z,40.60
2018-07-31T13:58:11.436Z,41.20
2018-07-31T14:00:40.441Z,42.20
2018-07-31T14:03:09.463Z,41.20
2018-07-31T14:08:07.091Z,40.70
2018-07-31T14:10:36.185Z,40.80
2018-07-31T14:13:05.431Z,41.50
2018-07-31T14:15:34.422Z,39.90
2018-07-31T14:18:03.452Z,40.50
2018-07-31T14:20:34.607Z,40.80
2018-07-31T14:23:04.257Z,40.20
2018-07-31T14:25:34.525Z,39.50
2018-07-31T14:28:03.550Z,39.30
2018-07-31T14:30:32.620Z,39.10
2018-07-31T14:35:30.777Z,41.20
2018-07-31T14:37:59.799Z,41.60
2018-07-31T14:40:28.836Z,43.40
2018-07-31T14:42:58.488Z,44.70
2018-07-31T14:45:27.587Z,44.00
2018-07-31T14:47:56.735Z,42.60
2018-07-31T14:50:25.727Z,42.40
2018-07-31T14:52:54.744Z,42.60
2018-07-31T14:55:23.732Z,42.50
2018-07-31T14:57:52.721Z,42.80
2018-07-31T15:00:21.742Z,42.10
2018-07-31T15:05:19.390Z,42.30
2018-07-31T15:07:48.479Z,42.60
2018-07-31T15:10:17.473Z,43.00
2018-07-31T15:12:46.495Z,43.40
2018-07-31T15:15:17.915Z,43.60
2018-07-31T15:17:46.926Z,43.20
2018-07-31T15:20:15.983Z,43.30
2018-07-31T15:22:45.001Z,43.70
2018-07-31T15:25:14.028Z,43.50
2018-07-31T15:27:43.069Z,43.30
2018-07-31T15:30:12.135Z,43.10
2018-07-31T15:32:41.171Z,43.10
2018-07-31T15:35:10.206Z,42.90
2018-07-31T15:37:39.214Z,42.90
2018-07-31T15:40:08.259Z,42.70
2018-07-31T15:42:37.251Z,42.90
2018-07-31T15:45:06.496Z,42.90
2018-07-31T15:47:35.500Z,42.60
2018-07-31T15:50:05.537Z,42.90
2018-07-31T15:52:36.835Z,42.70
2018-07-31T15:55:05.982Z,43.00
2018-07-31T15:57:35.089Z,43.10
2018-07-31T16:00:05.924Z,43.10
2018-07-31T16:02:34.920Z,42.60
2018-07-31T16:05:04.067Z,43.60
2018-07-31T16:07:33.385Z,43.60
2018-07-31T16:10:02.963Z,42.90
2018-07-31T16:12:31.994Z,42.70
2018-07-31T16:17:31.211Z,43.30
2018-07-31T16:20:00.214Z,42.90
2018-07-31T16:22:29.264Z,42.80
2018-07-31T16:24:59.399Z,43.10
2018-07-31T16:27:28.421Z,42.30
2018-07-31T16:32:27.038Z,42.90
2018-07-31T16:34:56.135Z,43.20
2018-07-31T16:40:05.370Z,43.30
2018-07-31T16:42:34.439Z,43.00
2018-07-31T16:45:03.594Z,43.30
2018-07-31T16:47:32.605Z,43.00
2018-07-31T16:50:01.685Z,43.00
2018-07-31T16:52:30.650Z,42.80
2018-07-31T16:57:28.384Z,43.50
2018-07-31T16:59:57.499Z,44.10
2018-07-31T17:02:26.494Z,43.60
2018-07-31T17:04:55.520Z,43.50
2018-07-31T17:07:24.514Z,43.50
2018-07-31T17:09:53.989Z,43.60
2018-07-31T17:12:23.011Z,44.00
2018-07-31T17:14:52.229Z,43.80
2018-07-31T17:17:21.244Z,44.20
2018-07-31T17:19:50.327Z,44.30
2018-07-31T17:22:19.608Z,44.10
2018-07-31T17:24:49.938Z,44.60
2018-07-31T17:27:18.986Z,55.10
2018-07-31T17:29:48.051Z,45.40
2018-07-31T17:32:17.076Z,45.60
2018-07-31T17:34:46.472Z,45.60
2018-07-31T17:37:15.565Z,45.20
2018-07-31T17:39:44.667Z,45.60
2018-07-31T17:42:13.998Z,45.60
2018-07-31T17:47:11.763Z,46.10
2018-07-31T17:49:40.877Z,47.10
2018-07-31T17:52:10.364Z,47.10
2018-07-31T17:54:40.273Z,47.20
2018-07-31T17:57:09.433Z,47.50
2018-07-31T17:59:38.476Z,47.90
2018-07-31T18:02:07.518Z,48.40
2018-07-31T18:04:36.576Z,48.80
2018-07-31T18:07:05.710Z,49.30
2018-07-31T18:09:34.804Z,49.50
2018-07-31T18:12:06.739Z,49.60
2018-07-31T18:14:35.876Z,50.10
2018-07-31T18:17:04.857Z,50.70
2018-07-31T18:19:33.900Z,51.30
2018-07-31T18:22:02.990Z,51.10
2018-07-31T18:24:32.008Z,50.30
2018-07-31T18:27:01.102Z,50.40
2018-07-31T18:29:30.157Z,50.60
2018-07-31T18:31:59.438Z,50.90
2018-07-31T18:34:28.466Z,51.40
2018-07-31T18:36:57.485Z,51.50
2018-07-31T18:39:26.485Z,51.90
2018-07-31T18:41:55.486Z,52.00
2018-07-31T18:44:24.555Z,52.00
2018-07-31T18:46:53.668Z,51.80
2018-07-31T18:49:22.682Z,51.90
2018-07-31T18:51:51.687Z,52.00
2018-07-31T18:54:21.299Z,51.90
2018-07-31T18:56:50.660Z,52.20
2018-07-31T19:01:48.361Z,52.70
2018-07-31T19:04:17.340Z,52.50
2018-07-31T19:06:46.434Z,52.90
2018-07-31T19:09:15.405Z,52.70
2018-07-31T19:11:44.423Z,53.20
2018-07-31T19:14:13.421Z,52.90
2018-07-31T19:16:42.435Z,54.30
2018-07-31T19:19:11.457Z,54.70
2018-07-31T19:21:40.512Z,55.50
2018-07-31T19:24:09.509Z,56.50
2018-07-31T19:26:38.554Z,57.10
2018-07-31T19:29:07.576Z,57.60
2018-07-31T19:31:36.666Z,58.20
2018-07-31T19:34:05.717Z,58.90
2018-07-31T19:36:34.729Z,59.10
2018-07-31T19:39:04.581Z,59.30
2018-07-31T19:41:34.043Z,60.20
2018-07-31T19:44:03.174Z,60.50
2018-07-31T19:46:32.207Z,60.30
2018-07-31T19:49:03.417Z,60.70
2018-07-31T19:51:32.860Z,61.10
2018-07-31T19:54:01.897Z,62.00
2018-07-31T19:56:31.053Z,61.90
2018-07-31T19:59:00.119Z,62.30
2018-07-31T20:01:29.131Z,62.80
2018-07-31T20:03:58.246Z,63.00
2018-07-31T20:06:27.218Z,63.20
2018-07-31T20:08:56.283Z,63.70
2018-07-31T20:11:25.304Z,64.00
2018-07-31T20:16:22.956Z,64.60
2018-07-31T20:18:52.027Z,64.80
2018-07-31T20:21:21.180Z,65.40
2018-07-31T20:23:50.252Z,65.60
2018-07-31T20:26:19.259Z,65.90
2018-07-31T20:28:48.263Z,66.00
2018-07-31T20:31:17.298Z,66.10
2018-07-31T20:33:46.307Z,66.60
2018-07-31T20:36:15.334Z,67.00
2018-07-31T20:38:44.399Z,67.10
2018-07-31T20:41:13.424Z,67.50
2018-07-31T20:43:42.445Z,67.90
2018-07-31T20:46:11.479Z,68.20
2018-07-31T20:48:40.479Z,68.40
2018-07-31T20:51:09.530Z,68.60
2018-07-31T20:53:38.543Z,68.90
2018-07-31T20:56:07.535Z,69.30
2018-07-31T20:58:36.563Z,69.90
2018-07-31T21:01:05.593Z,70.10
2018-07-31T21:03:34.602Z,70.30
2018-07-31T21:06:03.702Z,70.50
2018-07-31T21:08:33.086Z,71.10
2018-07-31T21:11:02.148Z,71.70
2018-07-31T21:13:31.209Z,72.10
2018-07-31T21:16:00.466Z,72.30
2018-07-31T21:18:29.536Z,72.80
2018-07-31T21:20:58.575Z,72.60
2018-07-31T21:23:27.636Z,73.10
2018-07-31T21:25:56.717Z,72.90
2018-07-31T21:28:27.671Z,73.00
2018-07-31T21:30:57.420Z,73.60
2018-07-31T21:33:27.711Z,74.10
2018-07-31T21:35:57.615Z,74.40
2018-07-31T21:38:27.511Z,74.60
2018-07-31T21:40:56.966Z,74.90
2018-07-31T21:43:26.371Z,74.90
2018-07-31T21:45:55.816Z,75.20
2018-07-31T21:48:25.121Z,76.60
2018-07-31T21:50:54.170Z,75.90
2018-07-31T21:53:23.306Z,76.20
2018-07-31T21:55:52.278Z,76.60
2018-07-31T21:58:21.342Z,77.00
2018-07-31T22:00:55.589Z,77.10
2018-07-31T22:03:24.645Z,78.00
2018-07-31T22:05:53.704Z,78.60
2018-07-31T22:08:22.650Z,78.70
2018-07-31T22:10:51.624Z,78.60
2018-07-31T22:13:20.672Z,78.50
2018-07-31T22:15:49.667Z,78.60
2018-07-31T22:18:18.652Z,78.90
2018-07-31T22:20:47.965Z,78.60
2018-07-31T22:23:17.011Z,78.50
2018-07-31T22:25:46.072Z,80.00
2018-07-31T22:28:15.079Z,79.60
2018-07-31T22:30:44.100Z,79.50
2018-07-31T22:33:13.340Z,79.90
2018-07-31T22:35:43.156Z,79.80
2018-07-31T22:38:12.196Z,79.80
2018-07-31T22:40:41.296Z,80.80
2018-07-31T22:43:10.299Z,80.40
2018-07-31T22:45:39.321Z,80.60
2018-07-31T22:48:08.340Z,80.30
2018-07-31T22:50:37.340Z,80.30
2018-07-31T22:53:06.403Z,81.00
2018-07-31T22:55:35.418Z,81.10
2018-07-31T22:58:04.470Z,81.30
2018-07-31T23:00:33.546Z,81.50
2018-07-31T23:03:02.666Z,81.40
2018-07-31T23:05:32.108Z,81.50
2018-07-31T23:08:01.165Z,81.30
2018-07-31T23:10:30.153Z,81.50
2018-07-31T23:12:59.193Z,82.00
2018-07-31T23:15:28.270Z,82.00
2018-07-31T23:17:57.287Z,82.70
2018-07-31T23:20:26.302Z,82.40
2018-07-31T23:22:55.421Z,82.60
2018-07-31T23:25:24.499Z,82.40
2018-07-31T23:27:53.516Z,82.60
2018-07-31T23:30:22.511Z,83.00
2018-07-31T23:32:51.559Z,83.40
2018-07-31T23:35:20.569Z,83.40
2018-07-31T23:37:49.710Z,83.10
2018-07-31T23:40:18.767Z,83.20
2018-07-31T23:42:47.786Z,82.60
2018-07-31T23:45:16.847Z,82.80
2018-07-31T23:47:45.870Z,82.60
2018-07-31T23:50:15.002Z,82.60
2018-07-31T23:52:44.026Z,82.80
2018-07-31T23:55:13.052Z,81.70
2018-07-31T23:57:42.082Z,81.70
